KOCW

Details ICAO KOCW
Name WARREN FLD
Region United States
Timezone America/New_York (UTC-5.0)
Plans Departing 5
Arriving 6
Stats Elevation 38 ft / 12 m (AMSL)
Location 35.570236° -77.049808°
Runways 3
Magnetic Variation 10.172° W
Sunrise 2017-12-17 12:13:07 UTC / 2017-12-17 07:13:07 Local
Sunset 2017-12-17 21:58:28 UTC / 2017-12-17 16:58:28 Local
Advertisement - Login to hide

Runways

ID Width Length Bearing (true) Bearing (mag) Surface Threshold Offset Overrun Length
05 100 ft / 30 m 5,004 ft / 1,525 m 36.67° 46.84° Asphalt 0 ft / 0 m 0 ft / 0 m
11 150 ft / 46 m 3,992 ft / 1,217 m 92.43° 102.60° Asphalt 0 ft / 0 m 0 ft / 0 m
17 150 ft / 46 m 5,008 ft / 1,527 m 155.30° 165.47° Asphalt 501 ft / 153 m 0 ft / 0 m
23 100 ft / 30 m 5,004 ft / 1,525 m 216.68° 226.85° Asphalt 199 ft / 61 m 0 ft / 0 m
29 150 ft / 46 m 3,992 ft / 1,217 m 272.43° 282.60° Asphalt 0 ft / 0 m 0 ft / 0 m
35 150 ft / 46 m 5,008 ft / 1,527 m 335.30° 345.47° Asphalt 0 ft / 0 m 0 ft / 0 m

Map

Weather


0- 5 10 15 20 25 30 35+ Temperature / ° C

Clouds and Precipitation
Forecast for 2017-12-18 00:00 UTC. Updated 41 minutes ago

Ground ~20,000 ft ~40,000 ft Winds

METAR

KOCW 171945Z AUTO 19003KT 10SM CLR 12/M01 A3021 RMK AO2 T01161008

TAF

Not found

Frequencies

Recorded 120.17 MHz AWOS 3
Unicom 122.70 MHz CTAF/UNICOM
Warning: Do not use this data for real-world aviation or navigation. No guarantee of current accuracy is given.